Boyd Deep Canyon Reserve, California Weather observations

Data are for 10 minute period ending at time listed.
 Day   Time   Solar   Ave.   Ave.  Ave.  Vector  Max.   Baro.   Total    
  of    of     Rad.   Air    Rel.  Wind   Wind   Wind  Press.  Precip.   
Year   Day            Temp.  Hum.  Speed  Dir.   Gust                    
2014   (PST)  Kw/m2    F      %     mph   deg.    mph    mb.     in.     
-------------------------------------------------------------------------
 243   17:50   0.01   99.5    13   11.6   208    20.1   969.8    0.00 
 243   18:00   0.01   99.0    13   11.1   197    16.7   969.8    0.00 
 243   18:10   0.01   98.5    13   12.3   179    19.1   969.8    0.00 
 243   18:20   0.00   98.0    14   11.1   175    17.1   969.8    0.00 
 243   18:30   0.00   97.4    14   12.2   175    18.9   969.9    0.00 
 243   18:40   0.00   96.9    14   12.5   172    18.0   970.0    0.00 
 243   18:50   0.00   96.4    15   13.6   174    19.1   970.0    0.00 
 243   19:00   0.00   95.9    15   13.9   171    22.0   970.0    0.00 
 243   19:10   0.00   95.4    16   13.9   173    21.4   970.0    0.00 
 243   19:20   0.00   95.0    16   12.0   179    16.6   970.1    0.00 
 243   19:30   0.00   94.9    15   10.7   184    17.9   970.2    0.00 
 243   19:40   0.00   94.7    15   12.0   187    19.6   970.2    0.00 
 243   19:50   0.00   94.6    15   11.5   178    19.1   970.3    0.00 
 243   20:00   0.00   94.6    15   11.5   176    20.0   970.4    0.00 
 243   20:10   0.00   94.5    15   12.6   176    19.7   970.4    0.00 
 243   20:20   0.00   94.3    15   10.7   178    17.5   970.4    0.00 
 243   20:30   0.00   94.2    15   12.5   175    18.2   970.4    0.00 
 243   20:40   0.00   94.2    15   12.2   174    17.2   970.5    0.00 
 243   20:50   0.00   94.1    16   10.5   183    17.1   970.5    0.00 
 243   21:00   0.00   93.8    16    6.2   207    11.0   970.6    0.00 
 243   21:10   0.00   93.8    16    4.3   206    10.3   970.7    0.00 
 243   21:20   0.00   94.0    16    6.2   175    14.6   970.6    0.00 
 243   21:30   0.00   94.2    16    9.4   172    17.0   970.6    0.00 
 243   21:40   0.00   93.8    17    9.7   178    17.6   970.6    0.00 
 243   21:50   0.00   93.6    17    9.1   202    16.0   970.6    0.00 
 243   22:00   0.00   93.3    17    9.4   190    15.0   970.6    0.00 
 243   22:10   0.00   93.1    18    9.1   181    15.6   970.6    0.00 
 243   22:20   0.00   93.2    17    9.1   180    17.2   970.7    0.00 
 243   22:30   0.00   93.0    17    7.2   189    15.4   970.7    0.00 
 243   22:40   0.00   90.1    19    3.8    16    10.3   970.8    0.00 
 243   22:50   0.00   91.1    18    8.3   174    16.0   970.7    0.00 
 243   23:00   0.00   93.0    16    8.9   177    14.8   970.6    0.00 
 243   23:10   0.00   93.0    16   10.4   173    16.0   970.6    0.00 
 243   23:20   0.00   93.1    15   11.3   176    17.2   970.6    0.00 
 243   23:30   0.00   93.3    14   11.0   174    15.6   970.6    0.00 
 243   23:40   0.00   93.1    14    6.5   168    15.1   970.6    0.00 
 243   23:50   0.00   88.1    19    4.3    33     8.5   970.7    0.00 
 244    0:00   0.00   86.1    21    3.6    68     6.6   970.7    0.00 
 244    0:10   0.00   85.6    21    4.0    69     7.2   970.7    0.00 
 244    0:20   0.00   85.6    21    3.0    79     5.3   970.8    0.00 
 244    0:30   0.00   85.3    22    2.4    58     4.3   970.8    0.00 
 244    0:40   0.00   84.8    22    3.0    43     5.4   970.8    0.00 
 244    0:50   0.00   84.6    22    4.0    14    10.3   970.9    0.00 
 244    1:00   0.00   85.1    21    4.2    33     8.5   970.9    0.00 
 244    1:10   0.00   84.5    22    4.6    79     7.7   970.9    0.00 
 244    1:20   0.00   84.5    22    2.8    63     4.7   970.9    0.00 
 244    1:30   0.00   83.8    22    2.7    64     4.5   971.0    0.00 
 244    1:40   0.00   84.3    22    2.4    78     4.4   971.0    0.00 
 244    1:50   0.00   83.6    22    0.8   258     2.1   971.1    0.00 
 244    2:00   0.00   83.0    23    0.7   184     2.1   971.1    0.00 
 244    2:10   0.00   82.9    23    0.6   299     2.4   971.0    0.00 
 244    2:20   0.00   82.8    23    0.9    46     2.3   971.0    0.00 
 244    2:30   0.00   82.5    23    0.8   139     2.3   971.1    0.00 
 244    2:40   0.00   82.5    23    1.0    65     2.7   971.1    0.00 
 244    2:50   0.00   82.3    23    0.1   311     1.2   971.2    0.00 
 244    3:00   0.00   81.8    24    0.4   304     1.6   971.2    0.00 
 244    3:10   0.00   81.4    24    0.0   297     0.1   971.2    0.00 
 244    3:20   0.00   80.9    24    1.5   236     2.5   971.3    0.00 
 244    3:30   0.00   81.7    24    0.7   178     2.2   971.4    0.00 
 244    3:40   0.00   81.2    24    0.3   220     1.7   971.4    0.00 
 244    3:50   0.00   80.7    24    1.2   236     2.2   971.5    0.00 
 244    4:00   0.00   80.8    24    1.3   217     1.8   971.5    0.00 
 244    4:10   0.00   79.8    25    0.1   194     1.0   971.5    0.00 
 244    4:20   0.00   79.8    25    0.0     0     0.0   971.6    0.00 
 244    4:30   0.00   79.6    25    0.4    23     1.5   971.8    0.00 
 244    4:40   0.00   79.8    25    1.0    62     2.1   971.9    0.00 
 244    4:50   0.00   79.5    26    0.1   146     1.2   972.0    0.00 
 244    5:00   0.00   79.4    26    1.1   254     2.1   972.0    0.00 
 244    5:10   0.00   79.3    26    0.6   239     2.2   972.1    0.00 
 244    5:20   0.00   79.2    26    0.6   214     3.4   972.2    0.00 
 244    5:30   0.00   79.5    26    3.1   208     3.9   972.3    0.00 
 244    5:40   0.01   79.4    26    1.4   196     3.0   972.4    0.00 
 244    5:50   0.01   79.1    26    0.0     0     0.0   972.5    0.00 
 244    6:00   0.01   79.0    26    0.0     0     0.0   972.5    0.00 
 244    6:10   0.02   79.2    26    1.1   205     2.0   972.6    0.00 
 244    6:20   0.09   79.8    25    2.2   203     3.4   972.6    0.00 
 244    6:30   0.17   83.0    23    1.4   113     2.7   972.7    0.00 
 244    6:40   0.20   85.3    21    1.5    32     2.2   972.8    0.00 
 244    6:50   0.24   86.2    20    1.0    20     1.8   972.8    0.00 
 244    7:00   0.28   87.3    20    1.3     4     2.0   972.7    0.00 
 244    7:10   0.31   87.2    20    3.4    17     5.9   972.6    0.00 
 244    7:20   0.35   86.7    20    3.0    24     4.7   972.7    0.00 
 244    7:30   0.39   87.8    19    1.7    33     3.3   972.8    0.00 
 244    7:40   0.43   88.7    19    2.0    22     3.4   972.9    0.00 
 244    7:50   0.47   89.1    19    2.4    18     4.6   973.0    0.00 
 244    8:00   0.50   88.9    19    3.3   357     4.7   973.0    0.00 
 244    8:10   0.54   88.6    20    4.8   350     7.6   973.1    0.00 
 244    8:20   0.57   89.1    20    5.0   358     7.3   973.2    0.00 
 244    8:30   0.60   89.9    19    2.9   352     6.1   973.3    0.00 
 244    8:40   0.63   90.3    18    4.5     3     7.2   973.5    0.00 
 244    8:50   0.66   90.6    19    5.2   348     9.3   973.6    0.00 
 244    9:00   0.69   91.1    18    4.2   341     8.0   973.8    0.00 
 244    9:10   0.72   91.7    18    5.1   352     6.9   973.8    0.00 
 244    9:20   0.74   92.7    17    4.4   354     8.8   973.9    0.00 
 244    9:30   0.77   93.2    17    3.5   350     8.4   973.9    0.00 
 244    9:40   0.80   93.4    16    5.7    41    15.4   973.9    0.00 
 244    9:50   0.82   93.7    17    5.2    12     8.4   973.9    0.00 
 244   10:00   0.84   94.0    17    6.5    12    10.1   974.0    0.00 
 244   10:10   0.86   93.8    17    5.6    83     9.3   974.0    0.00 
 244   10:20   0.88   92.9    17    7.8    69    13.3   974.0    0.00 
 244   10:30   0.89   93.8    16    6.4    64    11.2   974.0    0.00 
 244   10:40   0.91   94.4    16    7.6    60    11.5   974.0    0.00 
 244   10:50   0.92   94.3    17    7.2    62    14.1   973.9    0.00 
 244   11:00   0.93   94.9    16    7.0    64    14.0   973.8    0.00 
 244   11:10   0.94   95.2    16    7.8    56    15.1   973.7    0.00 
 244   11:20   0.95   95.8    16    8.1    59    12.5   973.7    0.00 
 244   11:30   0.95   96.2    16    7.7    55    14.2   973.5    0.00 
 244   11:40   0.96   96.3    16    6.7    60    11.7   973.4    0.00 
 244   11:50   0.95   96.7    15    8.0    58    14.2   973.3    0.00 
 244   12:00   0.95   97.6    15    7.3    59    13.4   973.2    0.00 
 244   12:10   0.95   96.9    16    6.5    63    12.6   973.1    0.00 
 244   12:20   0.92   97.4    16    7.0    67    12.9   973.0    0.00 
 244   12:30   0.94   97.4    17    4.3    86    10.7   972.9    0.00 
 244   12:40   0.93   97.8    17    5.6    86    10.4   972.9    0.00 
 244   12:50   0.92   98.3    16    4.5    97     9.5   972.8    0.00 
 244   13:00   0.91   98.3    15    4.8    83     8.8   972.7    0.00 
 244   13:10   0.90   99.8    14    5.2    56    10.7   972.6    0.00 
 244   13:20   0.88   99.4    14    7.1    60    11.2   972.5    0.00 
 244   13:30   0.86   99.7    13    5.1    49    10.2   972.4    0.00 
 244   13:40   0.84   99.5    13    4.5    75     8.8   972.2    0.00 
 244   13:50   0.82  100.1    13    5.4    59     9.6   972.1    0.00 
 244   14:00   0.80  100.8    12    3.6    69     9.0   972.0    0.00 
 244   14:10   0.78  100.6    13    6.0    66    10.6   971.8    0.00 
 244   14:20   0.75  100.6    12    5.6    58    10.0   971.8    0.00 
 244   14:30   0.72  101.3    12    5.1    51     8.8   971.6    0.00 
 244   14:40   0.69  100.7    12    5.5    51    10.2   971.5    0.00 
 244   14:50   0.67  100.8    11    5.4    69     9.7   971.5    0.00 
 244   15:00   0.64  101.5    11    3.7    71     7.7   971.4    0.00 
 244   15:10   0.61  101.9    11    3.7   128     8.2   971.3    0.00 
 244   15:20   0.57  102.4    10    4.4    38     9.4   971.3    0.00 
 244   15:30   0.54  102.2    10    4.8    28     7.7   971.2    0.00 
 244   15:40   0.51  102.0    11    4.5   341    10.3   971.2    0.00 
 244   15:50   0.47  102.3    10    3.5   342     8.6   971.2    0.00 
 244   16:00   0.43  102.3    10    6.6   344    10.2   971.1    0.00 
 244   16:10   0.40  102.1    10    5.2   349     8.7   971.1    0.00 
 244   16:20   0.36  101.6    10    5.8   342     8.9   971.1    0.00 
 244   16:30   0.32  101.7    10    6.0   354     8.3   971.1    0.00 
 244   16:40   0.28  101.5    10    4.7   350     7.4   971.1    0.00 
 244   16:50   0.25  101.7    10    4.1   353     8.6   971.1    0.00 
 244   17:00   0.21  101.6    10    4.2   356     8.5   971.0    0.00 
 244   17:10   0.14  101.4    10    2.8   338     7.7   971.0    0.00 
 244   17:20   0.03   99.9    11    3.6    11     5.9   971.0    0.00 
 244   17:30   0.03   99.4    11    3.5   359     5.6   971.0    0.00 
 244   17:40   0.01   99.0    11    3.9     2     6.1   970.9    0.00 

Return to Boyd Deep Canyon Reserve graphs page.


Western Regional Climate Center,wrcc@dri.edu